sensor_id;sensor_type;location;lat;lon;timestamp;temperature;humidity
23683;DHT22;24897;53.514;10.482;2022-12-07T00:00:20;4.20;99.90
23683;DHT22;24897;53.514;10.482;2022-12-07T00:03:04;3.40;99.90
23683;DHT22;24897;53.514;10.482;2022-12-07T00:05:48;4.90;99.90
23683;DHT22;24897;53.514;10.482;2022-12-07T00:08:34;3.50;99.90
23683;DHT22;24897;53.514;10.482;2022-12-07T00:11:20;3.00;99.90
23683;DHT22;24897;53.514;10.482;2022-12-07T00:14:07;3.10;99.90
23683;DHT22;24897;53.514;10.482;2022-12-07T00:16:51;3.30;99.90
23683;DHT22;24897;53.514;10.482;2022-12-07T00:19:36;3.40;99.90
23683;DHT22;24897;53.514;10.482;2022-12-07T00:25:04;2.80;99.90
23683;DHT22;24897;53.514;10.482;2022-12-07T00:27:49;3.70;99.90
23683;DHT22;24897;53.514;10.482;2022-12-07T00:30:33;3.50;99.90
23683;DHT22;24897;53.514;10.482;2022-12-07T00:33:17;2.90;99.90
23683;DHT22;24897;53.514;10.482;2022-12-07T00:36:03;3.60;99.90
23683;DHT22;24897;53.514;10.482;2022-12-07T00:38:49;3.60;99.90
23683;DHT22;24897;53.514;10.482;2022-12-07T00:41:33;4.00;99.90
23683;DHT22;24897;53.514;10.482;2022-12-07T00:44:17;3.80;99.90
23683;DHT22;24897;53.514;10.482;2022-12-07T00:47:01;3.40;99.90
23683;DHT22;24897;53.514;10.482;2022-12-07T00:49:45;4.10;99.90
23683;DHT22;24897;53.514;10.482;2022-12-07T00:52:29;3.70;99.90
23683;DHT22;24897;53.514;10.482;2022-12-07T00:57:58;3.80;99.90
23683;DHT22;24897;53.514;10.482;2022-12-07T01:00:43;3.90;99.90
23683;DHT22;24897;53.514;10.482;2022-12-07T01:03:27;3.60;99.90
23683;DHT22;24897;53.514;10.482;2022-12-07T01:06:15;3.90;99.90
23683;DHT22;24897;53.514;10.482;2022-12-07T01:09:00;3.70;99.90
23683;DHT22;24897;53.514;10.482;2022-12-07T01:11:45;3.90;99.90
23683;DHT22;24897;53.514;10.482;2022-12-07T01:14:29;3.90;99.90
23683;DHT22;24897;53.514;10.482;2022-12-07T01:22:43;3.10;99.90
23683;DHT22;24897;53.514;10.482;2022-12-07T01:31:02;3.60;99.90
23683;DHT22;24897;53.514;10.482;2022-12-07T01:33:52;4.00;99.90
23683;DHT22;24897;53.514;10.482;2022-12-07T01:36:37;3.50;99.90
23683;DHT22;24897;53.514;10.482;2022-12-07T01:42:12;4.00;99.90
23683;DHT22;24897;53.514;10.482;2022-12-07T01:45:38;4.10;99.90
23683;DHT22;24897;53.514;10.482;2022-12-07T01:48:38;4.20;99.90
23683;DHT22;24897;53.514;10.482;2022-12-07T01:51:24;4.00;99.90
23683;DHT22;24897;53.514;10.482;2022-12-07T01:54:10;4.10;99.90
23683;DHT22;24897;53.514;10.482;2022-12-07T01:56:56;3.80;99.90
23683;DHT22;24897;53.514;10.482;2022-12-07T01:59:43;5.00;99.90
23683;DHT22;24897;53.514;10.482;2022-12-07T02:02:38;4.20;99.90
23683;DHT22;24897;53.514;10.482;2022-12-07T02:05:24;4.20;99.90
23683;DHT22;24897;53.514;10.482;2022-12-07T02:08:09;4.30;99.90
23683;DHT22;24897;53.514;10.482;2022-12-07T02:13:42;4.20;99.90
23683;DHT22;24897;53.514;10.482;2022-12-07T02:22:35;4.20;99.90
23683;DHT22;24897;53.514;10.482;2022-12-07T02:29:14;4.30;99.90
23683;DHT22;24897;53.514;10.482;2022-12-07T02:32:11;4.30;99.90
23683;DHT22;24897;53.514;10.482;2022-12-07T02:35:17;4.30;99.90
23683;DHT22;24897;53.514;10.482;2022-12-07T02:38:11;4.30;99.90
23683;DHT22;24897;53.514;10.482;2022-12-07T02:41:25;4.50;99.90
23683;DHT22;24897;53.514;10.482;2022-12-07T02:44:10;4.30;99.90
23683;DHT22;24897;53.514;10.482;2022-12-07T02:47:03;5.10;99.90
23683;DHT22;24897;53.514;10.482;2022-12-07T02:49:50;4.30;99.90
23683;DHT22;24897;53.514;10.482;2022-12-07T02:52:35;4.30;99.90
23683;DHT22;24897;53.514;10.482;2022-12-07T02:55:23;4.50;99.90
23683;DHT22;24897;53.514;10.482;2022-12-07T02:58:19;4.40;99.90
23683;DHT22;24897;53.514;10.482;2022-12-07T03:04:19;4.00;99.90
23683;DHT22;24897;53.514;10.482;2022-12-07T03:07:35;4.30;99.90
23683;DHT22;24897;53.514;10.482;2022-12-07T03:13:39;4.30;99.90
23683;DHT22;24897;53.514;10.482;2022-12-07T03:17:00;4.10;99.90
23683;DHT22;24897;53.514;10.482;2022-12-07T03:19:49;4.70;99.90
23683;DHT22;24897;53.514;10.482;2022-12-07T03:22:35;4.30;99.90
23683;DHT22;24897;53.514;10.482;2022-12-07T03:25:21;4.40;99.90
23683;DHT22;24897;53.514;10.482;2022-12-07T03:28:07;4.80;99.90
23683;DHT22;24897;53.514;10.482;2022-12-07T03:31:00;4.20;99.90
23683;DHT22;24897;53.514;10.482;2022-12-07T03:33:57;4.30;99.90
23683;DHT22;24897;53.514;10.482;2022-12-07T03:36:56;4.20;99.90
23683;DHT22;24897;53.514;10.482;2022-12-07T03:39:49;3.40;99.90
23683;DHT22;24897;53.514;10.482;2022-12-07T03:42:36;3.90;99.90
23683;DHT22;24897;53.514;10.482;2022-12-07T03:45:25;4.50;99.90
23683;DHT22;24897;53.514;10.482;2022-12-07T03:48:36;3.60;99.90
23683;DHT22;24897;53.514;10.482;2022-12-07T03:51:28;4.10;99.90
23683;DHT22;24897;53.514;10.482;2022-12-07T03:54:18;4.00;99.90
23683;DHT22;24897;53.514;10.482;2022-12-07T03:57:04;3.90;99.90
23683;DHT22;24897;53.514;10.482;2022-12-07T03:59:50;3.50;99.90
23683;DHT22;24897;53.514;10.482;2022-12-07T04:02:35;3.70;99.90
23683;DHT22;24897;53.514;10.482;2022-12-07T04:05:19;4.20;99.90
23683;DHT22;24897;53.514;10.482;2022-12-07T04:08:04;3.90;99.90
23683;DHT22;24897;53.514;10.482;2022-12-07T04:10:48;4.30;99.90
23683;DHT22;24897;53.514;10.482;2022-12-07T04:13:32;4.00;99.90
23683;DHT22;24897;53.514;10.482;2022-12-07T04:16:36;3.70;99.90
23683;DHT22;24897;53.514;10.482;2022-12-07T04:19:25;3.90;99.90
23683;DHT22;24897;53.514;10.482;2022-12-07T04:22:10;3.30;99.90
23683;DHT22;24897;53.514;10.482;2022-12-07T04:24:54;4.10;99.90
23683;DHT22;24897;53.514;10.482;2022-12-07T04:27:38;3.70;99.90
23683;DHT22;24897;53.514;10.482;2022-12-07T04:33:07;4.00;99.90
23683;DHT22;24897;53.514;10.482;2022-12-07T04:35:52;4.00;99.90
23683;DHT22;24897;53.514;10.482;2022-12-07T04:38:36;3.30;99.90
23683;DHT22;24897;53.514;10.482;2022-12-07T04:41:20;3.20;99.90
23683;DHT22;24897;53.514;10.482;2022-12-07T04:44:13;3.30;99.90
23683;DHT22;24897;53.514;10.482;2022-12-07T04:52:27;3.00;99.90
23683;DHT22;24897;53.514;10.482;2022-12-07T05:00:41;3.40;99.90
23683;DHT22;24897;53.514;10.482;2022-12-07T05:03:25;3.30;99.90
23683;DHT22;24897;53.514;10.482;2022-12-07T05:06:10;3.20;99.90
23683;DHT22;24897;53.514;10.482;2022-12-07T05:08:55;2.80;99.90
23683;DHT22;24897;53.514;10.482;2022-12-07T05:14:24;3.50;99.90
23683;DHT22;24897;53.514;10.482;2022-12-07T05:17:08;2.70;99.90
23683;DHT22;24897;53.514;10.482;2022-12-07T05:19:52;4.40;99.90
23683;DHT22;24897;53.514;10.482;2022-12-07T05:22:36;3.30;99.90
23683;DHT22;24897;53.514;10.482;2022-12-07T05:25:20;4.30;99.90
23683;DHT22;24897;53.514;10.482;2022-12-07T05:28:05;2.90;99.90
23683;DHT22;24897;53.514;10.482;2022-12-07T05:30:49;3.30;99.90
23683;DHT22;24897;53.514;10.482;2022-12-07T05:33:33;3.20;99.90
23683;DHT22;24897;53.514;10.482;2022-12-07T05:36:18;3.10;99.90
23683;DHT22;24897;53.514;10.482;2022-12-07T05:39:03;3.60;99.90
23683;DHT22;24897;53.514;10.482;2022-12-07T05:41:47;3.50;99.90
23683;DHT22;24897;53.514;10.482;2022-12-07T05:44:50;2.90;99.90
23683;DHT22;24897;53.514;10.482;2022-12-07T05:47:34;3.00;99.90
23683;DHT22;24897;53.514;10.482;2022-12-07T05:53:04;3.00;99.90
23683;DHT22;24897;53.514;10.482;2022-12-07T05:55:48;2.90;99.90
23683;DHT22;24897;53.514;10.482;2022-12-07T05:58:32;2.50;99.90
23683;DHT22;24897;53.514;10.482;2022-12-07T06:01:35;2.60;99.90
23683;DHT22;24897;53.514;10.482;2022-12-07T06:04:20;4.00;99.90
23683;DHT22;24897;53.514;10.482;2022-12-07T06:07:05;2.40;99.90
23683;DHT22;24897;53.514;10.482;2022-12-07T06:12:34;2.00;99.90
23683;DHT22;24897;53.514;10.482;2022-12-07T06:15:18;1.90;99.90
23683;DHT22;24897;53.514;10.482;2022-12-07T06:20:47;2.40;99.90
23683;DHT22;24897;53.514;10.482;2022-12-07T06:26:16;2.40;99.90
23683;DHT22;24897;53.514;10.482;2022-12-07T06:29:00;1.90;99.90
23683;DHT22;24897;53.514;10.482;2022-12-07T06:31:44;2.40;99.90
23683;DHT22;24897;53.514;10.482;2022-12-07T06:34:28;2.00;99.90
23683;DHT22;24897;53.514;10.482;2022-12-07T06:39:57;1.80;99.90
23683;DHT22;24897;53.514;10.482;2022-12-07T06:45:26;2.00;99.90
23683;DHT22;24897;53.514;10.482;2022-12-07T06:48:10;2.40;99.90
23683;DHT22;24897;53.514;10.482;2022-12-07T06:50:54;1.90;99.90
23683;DHT22;24897;53.514;10.482;2022-12-07T06:53:39;2.30;99.90
23683;DHT22;24897;53.514;10.482;2022-12-07T06:56:23;2.60;99.90
23683;DHT22;24897;53.514;10.482;2022-12-07T06:59:07;2.60;99.90
23683;DHT22;24897;53.514;10.482;2022-12-07T07:01:51;2.20;99.90
23683;DHT22;24897;53.514;10.482;2022-12-07T07:07:20;3.20;99.90
23683;DHT22;24897;53.514;10.482;2022-12-07T07:10:05;2.40;99.90
23683;DHT22;24897;53.514;10.482;2022-12-07T07:15:34;2.30;99.90
23683;DHT22;24897;53.514;10.482;2022-12-07T07:18:21;3.40;99.90
23683;DHT22;24897;53.514;10.482;2022-12-07T07:23:50;2.20;99.90
23683;DHT22;24897;53.514;10.482;2022-12-07T07:29:19;1.40;99.90
23683;DHT22;24897;53.514;10.482;2022-12-07T07:32:03;2.00;99.90
23683;DHT22;24897;53.514;10.482;2022-12-07T07:34:48;2.00;99.90
23683;DHT22;24897;53.514;10.482;2022-12-07T07:40:17;2.40;99.90
23683;DHT22;24897;53.514;10.482;2022-12-07T07:43:02;2.80;99.90
23683;DHT22;24897;53.514;10.482;2022-12-07T07:45:46;2.80;99.90
23683;DHT22;24897;53.514;10.482;2022-12-07T07:48:31;2.80;99.90
23683;DHT22;24897;53.514;10.482;2022-12-07T07:51:15;2.50;99.90
23683;DHT22;24897;53.514;10.482;2022-12-07T07:53:59;2.50;99.90
23683;DHT22;24897;53.514;10.482;2022-12-07T07:56:44;2.60;99.90
23683;DHT22;24897;53.514;10.482;2022-12-07T07:59:28;2.60;99.90
23683;DHT22;24897;53.514;10.482;2022-12-07T08:02:17;2.50;99.90
23683;DHT22;24897;53.514;10.482;2022-12-07T08:05:02;2.60;99.90
23683;DHT22;24897;53.514;10.482;2022-12-07T08:07:47;2.50;99.90
23683;DHT22;24897;53.514;10.482;2022-12-07T08:10:31;2.90;99.90
23683;DHT22;24897;53.514;10.482;2022-12-07T08:13:16;2.50;99.90
23683;DHT22;24897;53.514;10.482;2022-12-07T08:16:06;2.80;99.90
23683;DHT22;24897;53.514;10.482;2022-12-07T08:18:50;2.90;99.90
23683;DHT22;24897;53.514;10.482;2022-12-07T08:21:34;2.90;99.90
23683;DHT22;24897;53.514;10.482;2022-12-07T08:24:18;2.80;99.90
23683;DHT22;24897;53.514;10.482;2022-12-07T08:27:03;1.90;99.90
23683;DHT22;24897;53.514;10.482;2022-12-07T08:29:47;3.10;99.90
23683;DHT22;24897;53.514;10.482;2022-12-07T08:32:31;2.50;99.90
23683;DHT22;24897;53.514;10.482;2022-12-07T08:35:16;2.70;99.90
23683;DHT22;24897;53.514;10.482;2022-12-07T08:38:00;3.10;99.90
23683;DHT22;24897;53.514;10.482;2022-12-07T08:41:07;3.30;99.90
23683;DHT22;24897;53.514;10.482;2022-12-07T08:43:51;3.00;99.90
23683;DHT22;24897;53.514;10.482;2022-12-07T08:46:44;3.10;99.90
23683;DHT22;24897;53.514;10.482;2022-12-07T08:49:43;3.00;99.90
23683;DHT22;24897;53.514;10.482;2022-12-07T08:52:30;3.10;99.90
23683;DHT22;24897;53.514;10.482;2022-12-07T08:55:15;3.40;99.90
23683;DHT22;24897;53.514;10.482;2022-12-07T08:57:59;3.70;99.90
23683;DHT22;24897;53.514;10.482;2022-12-07T09:00:44;3.30;99.90
23683;DHT22;24897;53.514;10.482;2022-12-07T09:03:28;3.60;99.90
23683;DHT22;24897;53.514;10.482;2022-12-07T09:06:12;4.20;99.90
23683;DHT22;24897;53.514;10.482;2022-12-07T09:08:58;4.50;99.90
23683;DHT22;24897;53.514;10.482;2022-12-07T09:11:45;3.50;99.90
23683;DHT22;24897;53.514;10.482;2022-12-07T09:14:29;2.90;99.90
23683;DHT22;24897;53.514;10.482;2022-12-07T09:17:13;3.40;99.90
23683;DHT22;24897;53.514;10.482;2022-12-07T09:19:57;3.30;99.90
23683;DHT22;24897;53.514;10.482;2022-12-07T09:25:26;3.60;99.90
23683;DHT22;24897;53.514;10.482;2022-12-07T09:28:11;3.60;99.90
23683;DHT22;24897;53.514;10.482;2022-12-07T09:30:55;3.70;99.90
23683;DHT22;24897;53.514;10.482;2022-12-07T09:33:39;3.80;99.90
23683;DHT22;24897;53.514;10.482;2022-12-07T09:36:23;4.00;99.90
23683;DHT22;24897;53.514;10.482;2022-12-07T09:39:08;4.10;99.90
23683;DHT22;24897;53.514;10.482;2022-12-07T09:41:53;4.10;99.90
23683;DHT22;24897;53.514;10.482;2022-12-07T09:44:39;4.10;99.90
23683;DHT22;24897;53.514;10.482;2022-12-07T09:47:24;4.10;99.90
23683;DHT22;24897;53.514;10.482;2022-12-07T09:50:19;4.20;99.90
23683;DHT22;24897;53.514;10.482;2022-12-07T09:53:36;4.20;99.90
23683;DHT22;24897;53.514;10.482;2022-12-07T09:56:22;4.30;99.90
23683;DHT22;24897;53.514;10.482;2022-12-07T09:59:13;4.30;99.90
23683;DHT22;24897;53.514;10.482;2022-12-07T10:02:25;4.30;99.90
23683;DHT22;24897;53.514;10.482;2022-12-07T10:05:18;4.30;99.90
23683;DHT22;24897;53.514;10.482;2022-12-07T10:08:04;4.40;99.90
23683;DHT22;24897;53.514;10.482;2022-12-07T10:10:53;4.40;99.90
23683;DHT22;24897;53.514;10.482;2022-12-07T10:13:38;4.50;99.90
23683;DHT22;24897;53.514;10.482;2022-12-07T10:16:40;4.50;99.90
23683;DHT22;24897;53.514;10.482;2022-12-07T10:19:32;4.70;99.90
23683;DHT22;24897;53.514;10.482;2022-12-07T10:25:16;4.70;99.90
23683;DHT22;24897;53.514;10.482;2022-12-07T10:28:14;4.70;99.90
23683;DHT22;24897;53.514;10.482;2022-12-07T10:31:01;5.00;99.90
23683;DHT22;24897;53.514;10.482;2022-12-07T10:33:51;4.90;99.90
23683;DHT22;24897;53.514;10.482;2022-12-07T10:36:38;4.90;99.90
23683;DHT22;24897;53.514;10.482;2022-12-07T10:39:23;5.00;99.90
23683;DHT22;24897;53.514;10.482;2022-12-07T10:51:15;5.50;99.90
23683;DHT22;24897;53.514;10.482;2022-12-07T11:12:09;4.70;99.90
23683;DHT22;24897;53.514;10.482;2022-12-07T11:18:04;6.30;99.90
23683;DHT22;24897;53.514;10.482;2022-12-07T11:24:14;5.20;99.90
23683;DHT22;24897;53.514;10.482;2022-12-07T11:27:42;5.70;99.90
23683;DHT22;24897;53.514;10.482;2022-12-07T11:34:07;5.40;99.90
23683;DHT22;24897;53.514;10.482;2022-12-07T11:36:54;6.20;99.90
23683;DHT22;24897;53.514;10.482;2022-12-07T11:39:48;6.60;99.90
23683;DHT22;24897;53.514;10.482;2022-12-07T11:42:38;5.10;99.90
23683;DHT22;24897;53.514;10.482;2022-12-07T11:45:30;5.40;99.90
23683;DHT22;24897;53.514;10.482;2022-12-07T11:51:33;5.90;99.90
23683;DHT22;24897;53.514;10.482;2022-12-07T11:54:23;5.50;99.90
23683;DHT22;24897;53.514;10.482;2022-12-07T11:57:15;5.50;99.90
23683;DHT22;24897;53.514;10.482;2022-12-07T12:00:05;5.70;99.90
23683;DHT22;24897;53.514;10.482;2022-12-07T12:02:57;5.50;99.90
23683;DHT22;24897;53.514;10.482;2022-12-07T12:05:42;5.60;99.90
23683;DHT22;24897;53.514;10.482;2022-12-07T12:09:29;5.70;99.90
23683;DHT22;24897;53.514;10.482;2022-12-07T12:21:15;5.40;99.90
23683;DHT22;24897;53.514;10.482;2022-12-07T12:24:00;5.80;99.90
23683;DHT22;24897;53.514;10.482;2022-12-07T12:27:08;5.90;99.90
23683;DHT22;24897;53.514;10.482;2022-12-07T12:29:59;7.00;99.90
23683;DHT22;24897;53.514;10.482;2022-12-07T12:32:45;6.40;99.90
23683;DHT22;24897;53.514;10.482;2022-12-07T12:35:36;5.90;99.90
23683;DHT22;24897;53.514;10.482;2022-12-07T12:47:52;6.20;99.90
23683;DHT22;24897;53.514;10.482;2022-12-07T12:50:38;6.10;99.90
23683;DHT22;24897;53.514;10.482;2022-12-07T12:53:25;5.60;99.90
23683;DHT22;24897;53.514;10.482;2022-12-07T12:56:25;6.10;99.90
23683;DHT22;24897;53.514;10.482;2022-12-07T13:08:02;6.70;99.90
23683;DHT22;24897;53.514;10.482;2022-12-07T13:10:49;7.00;99.90
23683;DHT22;24897;53.514;10.482;2022-12-07T13:13:35;6.60;99.90
23683;DHT22;24897;53.514;10.482;2022-12-07T13:25:45;5.20;99.90
23683;DHT22;24897;53.514;10.482;2022-12-07T13:28:52;6.30;99.90
23683;DHT22;24897;53.514;10.482;2022-12-07T13:34:40;5.60;99.90
23683;DHT22;24897;53.514;10.482;2022-12-07T13:37:30;5.50;99.90
23683;DHT22;24897;53.514;10.482;2022-12-07T13:40:19;5.60;99.90
23683;DHT22;24897;53.514;10.482;2022-12-07T13:43:05;5.40;99.90
23683;DHT22;24897;53.514;10.482;2022-12-07T13:45:59;5.30;99.90
23683;DHT22;24897;53.514;10.482;2022-12-07T13:48:49;5.40;99.90
23683;DHT22;24897;53.514;10.482;2022-12-07T13:51:35;5.30;99.90
23683;DHT22;24897;53.514;10.482;2022-12-07T13:54:21;5.00;99.90
23683;DHT22;24897;53.514;10.482;2022-12-07T13:57:06;4.80;99.90
23683;DHT22;24897;53.514;10.482;2022-12-07T13:59:52;4.80;99.90
23683;DHT22;24897;53.514;10.482;2022-12-07T14:02:36;5.00;99.90
23683;DHT22;24897;53.514;10.482;2022-12-07T14:05:31;4.70;99.90
23683;DHT22;24897;53.514;10.482;2022-12-07T14:11:03;4.50;99.90
23683;DHT22;24897;53.514;10.482;2022-12-07T14:13:59;4.80;99.90
23683;DHT22;24897;53.514;10.482;2022-12-07T14:16:55;4.40;99.90
23683;DHT22;24897;53.514;10.482;2022-12-07T14:19:56;4.90;99.90
23683;DHT22;24897;53.514;10.482;2022-12-07T14:22:40;5.10;99.90
23683;DHT22;24897;53.514;10.482;2022-12-07T14:25:26;4.90;99.90
23683;DHT22;24897;53.514;10.482;2022-12-07T14:28:32;4.60;99.90
23683;DHT22;24897;53.514;10.482;2022-12-07T14:31:18;4.30;99.90
23683;DHT22;24897;53.514;10.482;2022-12-07T14:34:09;4.00;99.90
23683;DHT22;24897;53.514;10.482;2022-12-07T14:36:54;4.70;99.90
23683;DHT22;24897;53.514;10.482;2022-12-07T14:39:38;4.80;99.90
23683;DHT22;24897;53.514;10.482;2022-12-07T14:42:26;4.60;99.90
23683;DHT22;24897;53.514;10.482;2022-12-07T14:45:22;3.90;99.90
23683;DHT22;24897;53.514;10.482;2022-12-07T14:48:07;3.80;99.90
23683;DHT22;24897;53.514;10.482;2022-12-07T14:50:54;4.10;99.90
23683;DHT22;24897;53.514;10.482;2022-12-07T14:53:44;3.50;99.90
23683;DHT22;24897;53.514;10.482;2022-12-07T14:56:30;3.50;99.90
23683;DHT22;24897;53.514;10.482;2022-12-07T14:59:14;3.80;99.90
23683;DHT22;24897;53.514;10.482;2022-12-07T15:01:58;4.10;99.90
23683;DHT22;24897;53.514;10.482;2022-12-07T15:04:42;3.70;99.90
23683;DHT22;24897;53.514;10.482;2022-12-07T15:07:27;3.70;99.90
23683;DHT22;24897;53.514;10.482;2022-12-07T15:10:24;3.60;99.90
23683;DHT22;24897;53.514;10.482;2022-12-07T15:13:13;3.50;99.90
23683;DHT22;24897;53.514;10.482;2022-12-07T15:16:29;3.50;99.90
23683;DHT22;24897;53.514;10.482;2022-12-07T15:19:16;3.40;99.90
23683;DHT22;24897;53.514;10.482;2022-12-07T15:22:01;3.30;99.90
23683;DHT22;24897;53.514;10.482;2022-12-07T15:24:45;3.30;99.90
23683;DHT22;24897;53.514;10.482;2022-12-07T15:27:30;3.20;99.90
23683;DHT22;24897;53.514;10.482;2022-12-07T15:30:15;3.20;99.90
23683;DHT22;24897;53.514;10.482;2022-12-07T15:32:59;3.10;99.90
23683;DHT22;24897;53.514;10.482;2022-12-07T15:35:44;3.00;99.90
23683;DHT22;24897;53.514;10.482;2022-12-07T15:38:29;2.90;99.90
23683;DHT22;24897;53.514;10.482;2022-12-07T15:41:14;2.80;99.90
23683;DHT22;24897;53.514;10.482;2022-12-07T15:43:59;2.80;99.90
23683;DHT22;24897;53.514;10.482;2022-12-07T15:47:02;2.80;99.90
23683;DHT22;24897;53.514;10.482;2022-12-07T15:49:47;2.60;99.90
23683;DHT22;24897;53.514;10.482;2022-12-07T15:52:32;2.60;99.90
23683;DHT22;24897;53.514;10.482;2022-12-07T15:55:16;2.60;99.90
23683;DHT22;24897;53.514;10.482;2022-12-07T15:58:00;2.60;99.90
23683;DHT22;24897;53.514;10.482;2022-12-07T16:00:44;2.60;99.90
23683;DHT22;24897;53.514;10.482;2022-12-07T16:03:28;2.50;99.90
23683;DHT22;24897;53.514;10.482;2022-12-07T16:06:16;2.50;99.90
23683;DHT22;24897;53.514;10.482;2022-12-07T16:09:01;2.40;99.90
23683;DHT22;24897;53.514;10.482;2022-12-07T16:11:46;2.40;99.90
23683;DHT22;24897;53.514;10.482;2022-12-07T16:14:30;2.70;99.90
23683;DHT22;24897;53.514;10.482;2022-12-07T16:17:17;2.40;99.90
23683;DHT22;24897;53.514;10.482;2022-12-07T16:20:03;2.30;99.90
23683;DHT22;24897;53.514;10.482;2022-12-07T16:22:51;2.30;99.90
23683;DHT22;24897;53.514;10.482;2022-12-07T16:25:36;2.80;99.90
23683;DHT22;24897;53.514;10.482;2022-12-07T16:28:20;2.30;99.90
23683;DHT22;24897;53.514;10.482;2022-12-07T16:31:07;1.50;99.90
23683;DHT22;24897;53.514;10.482;2022-12-07T16:33:56;2.30;99.90
23683;DHT22;24897;53.514;10.482;2022-12-07T16:36:41;2.30;99.90
23683;DHT22;24897;53.514;10.482;2022-12-07T16:39:25;2.30;99.90
23683;DHT22;24897;53.514;10.482;2022-12-07T16:42:10;2.30;99.90
23683;DHT22;24897;53.514;10.482;2022-12-07T16:44:54;2.20;99.90
23683;DHT22;24897;53.514;10.482;2022-12-07T16:47:38;2.20;99.90
23683;DHT22;24897;53.514;10.482;2022-12-07T16:50:22;2.10;99.90
23683;DHT22;24897;53.514;10.482;2022-12-07T16:53:07;2.10;99.90
23683;DHT22;24897;53.514;10.482;2022-12-07T16:55:52;2.10;99.90
23683;DHT22;24897;53.514;10.482;2022-12-07T16:58:36;2.10;99.90
23683;DHT22;24897;53.514;10.482;2022-12-07T17:01:21;2.10;99.90
23683;DHT22;24897;53.514;10.482;2022-12-07T17:04:06;2.10;99.90
23683;DHT22;24897;53.514;10.482;2022-12-07T17:06:51;2.00;99.90
23683;DHT22;24897;53.514;10.482;2022-12-07T17:09:36;1.90;99.90
23683;DHT22;24897;53.514;10.482;2022-12-07T17:12:20;2.00;99.90
23683;DHT22;24897;53.514;10.482;2022-12-07T17:15:05;1.90;99.90
23683;DHT22;24897;53.514;10.482;2022-12-07T17:18:01;1.90;99.90
23683;DHT22;24897;53.514;10.482;2022-12-07T17:20:45;1.80;99.90
23683;DHT22;24897;53.514;10.482;2022-12-07T17:23:30;1.60;99.90
23683;DHT22;24897;53.514;10.482;2022-12-07T17:26:21;1.90;99.90
23683;DHT22;24897;53.514;10.482;2022-12-07T17:29:06;1.90;99.90
23683;DHT22;24897;53.514;10.482;2022-12-07T17:31:52;1.90;99.90
23683;DHT22;24897;53.514;10.482;2022-12-07T17:34:36;1.90;99.90
23683;DHT22;24897;53.514;10.482;2022-12-07T17:37:21;1.90;99.90
23683;DHT22;24897;53.514;10.482;2022-12-07T17:40:05;1.90;99.90
23683;DHT22;24897;53.514;10.482;2022-12-07T17:42:49;2.00;99.90
23683;DHT22;24897;53.514;10.482;2022-12-07T17:45:36;2.00;99.90
23683;DHT22;24897;53.514;10.482;2022-12-07T17:48:20;2.00;99.90
23683;DHT22;24897;53.514;10.482;2022-12-07T17:51:08;2.00;99.90
23683;DHT22;24897;53.514;10.482;2022-12-07T17:54:11;2.00;99.90
23683;DHT22;24897;53.514;10.482;2022-12-07T17:56:56;3.50;99.90
23683;DHT22;24897;53.514;10.482;2022-12-07T17:59:41;2.00;99.90
23683;DHT22;24897;53.514;10.482;2022-12-07T18:02:25;1.90;99.90
23683;DHT22;24897;53.514;10.482;2022-12-07T18:05:10;1.90;99.90
23683;DHT22;24897;53.514;10.482;2022-12-07T18:07:54;1.90;99.90
23683;DHT22;24897;53.514;10.482;2022-12-07T18:10:38;1.90;99.90
23683;DHT22;24897;53.514;10.482;2022-12-07T18:13:23;1.80;99.90
23683;DHT22;24897;53.514;10.482;2022-12-07T18:16:22;1.80;99.90
23683;DHT22;24897;53.514;10.482;2022-12-07T18:19:07;1.70;99.90
23683;DHT22;24897;53.514;10.482;2022-12-07T18:21:52;1.70;99.90
23683;DHT22;24897;53.514;10.482;2022-12-07T18:24:37;1.70;99.90
23683;DHT22;24897;53.514;10.482;2022-12-07T18:27:22;1.70;99.90
23683;DHT22;24897;53.514;10.482;2022-12-07T18:30:06;1.70;99.90
23683;DHT22;24897;53.514;10.482;2022-12-07T18:32:51;1.70;99.90
23683;DHT22;24897;53.514;10.482;2022-12-07T18:35:35;1.70;99.90
23683;DHT22;24897;53.514;10.482;2022-12-07T18:38:20;1.70;99.90
23683;DHT22;24897;53.514;10.482;2022-12-07T18:41:10;1.70;99.90
23683;DHT22;24897;53.514;10.482;2022-12-07T18:43:55;1.70;99.90
23683;DHT22;24897;53.514;10.482;2022-12-07T18:46:40;1.70;99.90
23683;DHT22;24897;53.514;10.482;2022-12-07T18:49:25;1.80;99.90
23683;DHT22;24897;53.514;10.482;2022-12-07T18:52:10;1.70;99.90
23683;DHT22;24897;53.514;10.482;2022-12-07T18:54:54;1.60;99.90
23683;DHT22;24897;53.514;10.482;2022-12-07T18:57:38;1.70;99.90
23683;DHT22;24897;53.514;10.482;2022-12-07T19:00:23;1.70;99.90
23683;DHT22;24897;53.514;10.482;2022-12-07T19:03:08;1.70;99.90
23683;DHT22;24897;53.514;10.482;2022-12-07T19:05:52;1.70;99.90
23683;DHT22;24897;53.514;10.482;2022-12-07T19:08:39;1.70;99.90
23683;DHT22;24897;53.514;10.482;2022-12-07T19:11:29;1.70;99.90
23683;DHT22;24897;53.514;10.482;2022-12-07T19:14:34;1.60;99.90
23683;DHT22;24897;53.514;10.482;2022-12-07T19:17:19;1.60;99.90
23683;DHT22;24897;53.514;10.482;2022-12-07T19:20:05;1.50;99.90
23683;DHT22;24897;53.514;10.482;2022-12-07T19:22:50;1.50;99.90
23683;DHT22;24897;53.514;10.482;2022-12-07T19:25:34;1.50;99.90
23683;DHT22;24897;53.514;10.482;2022-12-07T19:28:18;1.40;99.90
23683;DHT22;24897;53.514;10.482;2022-12-07T19:31:07;1.40;99.90
23683;DHT22;24897;53.514;10.482;2022-12-07T19:33:51;1.30;99.90
23683;DHT22;24897;53.514;10.482;2022-12-07T19:36:35;1.30;99.90
23683;DHT22;24897;53.514;10.482;2022-12-07T19:39:19;1.30;99.90
23683;DHT22;24897;53.514;10.482;2022-12-07T19:42:04;1.30;99.90
23683;DHT22;24897;53.514;10.482;2022-12-07T19:44:48;1.70;99.90
23683;DHT22;24897;53.514;10.482;2022-12-07T19:47:32;2.50;99.90
23683;DHT22;24897;53.514;10.482;2022-12-07T19:50:16;0.70;99.90
23683;DHT22;24897;53.514;10.482;2022-12-07T19:53:00;2.70;99.90
23683;DHT22;24897;53.514;10.482;2022-12-07T19:58:29;1.20;99.90
23683;DHT22;24897;53.514;10.482;2022-12-07T20:01:14;1.20;99.90
23683;DHT22;24897;53.514;10.482;2022-12-07T20:03:58;1.00;99.90
23683;DHT22;24897;53.514;10.482;2022-12-07T20:06:43;1.50;99.90
23683;DHT22;24897;53.514;10.482;2022-12-07T20:09:27;1.50;99.90
23683;DHT22;24897;53.514;10.482;2022-12-07T20:12:11;1.40;99.90
23683;DHT22;24897;53.514;10.482;2022-12-07T20:15:14;1.40;99.90
23683;DHT22;24897;53.514;10.482;2022-12-07T20:17:59;1.40;99.90
23683;DHT22;24897;53.514;10.482;2022-12-07T20:20:55;1.20;99.90
23683;DHT22;24897;53.514;10.482;2022-12-07T20:23:40;2.70;99.90
23683;DHT22;24897;53.514;10.482;2022-12-07T20:26:24;1.60;99.90
23683;DHT22;24897;53.514;10.482;2022-12-07T20:29:10;1.40;99.90
23683;DHT22;24897;53.514;10.482;2022-12-07T20:31:57;1.40;99.90
23683;DHT22;24897;53.514;10.482;2022-12-07T20:34:41;1.50;99.90